sensor_id;sensor_type;location;lat;lon;timestamp;pressure;altitude;pressure_sealevel;temperature;humidity
11936;BME280;6027;48.576;9.180;2023-04-28T00:00:49;96692.09;;;11.45;93.22
11936;BME280;6027;48.576;9.180;2023-04-28T00:03:15;96692.72;;;11.47;91.56
11936;BME280;6027;48.576;9.180;2023-04-28T00:05:41;96695.56;;;11.45;92.70
11936;BME280;6027;48.576;9.180;2023-04-28T00:08:06;96692.16;;;11.51;92.09
11936;BME280;6027;48.576;9.180;2023-04-28T00:10:32;96684.41;;;11.56;89.73
11936;BME280;6027;48.576;9.180;2023-04-28T00:12:57;96692.16;;;11.58;89.16
11936;BME280;6027;48.576;9.180;2023-04-28T00:15:23;96690.13;;;11.53;90.82
11936;BME280;6027;48.576;9.180;2023-04-28T00:17:48;96687.34;;;11.12;100.00
11936;BME280;6027;48.576;9.180;2023-04-28T00:20:14;96702.06;;;11.21;100.00
11936;BME280;6027;48.576;9.180;2023-04-28T00:22:40;96701.88;;;11.23;100.00
11936;BME280;6027;48.576;9.180;2023-04-28T00:25:06;96697.47;;;11.30;100.00
11936;BME280;6027;48.576;9.180;2023-04-28T00:27:32;96679.56;;;11.32;100.00
11936;BME280;6027;48.576;9.180;2023-04-28T00:29:58;96675.44;;;11.29;100.00
11936;BME280;6027;48.576;9.180;2023-04-28T00:32:24;96687.31;;;11.33;100.00
11936;BME280;6027;48.576;9.180;2023-04-28T00:34:49;96681.81;;;11.35;100.00
11936;BME280;6027;48.576;9.180;2023-04-28T00:37:15;96685.72;;;11.39;100.00
11936;BME280;6027;48.576;9.180;2023-04-28T00:39:41;96679.28;;;11.48;100.00
11936;BME280;6027;48.576;9.180;2023-04-28T00:42:11;96675.41;;;11.51;100.00
11936;BME280;6027;48.576;9.180;2023-04-28T00:44:36;96676.03;;;11.53;100.00
11936;BME280;6027;48.576;9.180;2023-04-28T00:47:02;96676.88;;;11.53;100.00
11936;BME280;6027;48.576;9.180;2023-04-28T00:49:27;96673.81;;;11.56;100.00
11936;BME280;6027;48.576;9.180;2023-04-28T00:51:53;96673.34;;;11.46;100.00
11936;BME280;6027;48.576;9.180;2023-04-28T00:54:19;96666.41;;;11.45;100.00
11936;BME280;6027;48.576;9.180;2023-04-28T00:56:45;96659.69;;;11.49;100.00
11936;BME280;6027;48.576;9.180;2023-04-28T00:59:11;96660.34;;;11.51;100.00
11936;BME280;6027;48.576;9.180;2023-04-28T01:01:36;96661.16;;;11.52;100.00
11936;BME280;6027;48.576;9.180;2023-04-28T01:04:02;96660.97;;;11.53;100.00
11936;BME280;6027;48.576;9.180;2023-04-28T01:06:28;96660.13;;;11.53;100.00
11936;BME280;6027;48.576;9.180;2023-04-28T01:08:55;96658.88;;;11.49;100.00
11936;BME280;6027;48.576;9.180;2023-04-28T01:11:20;96657.50;;;11.53;100.00
11936;BME280;6027;48.576;9.180;2023-04-28T01:13:45;96655.03;;;11.51;100.00
11936;BME280;6027;48.576;9.180;2023-04-28T01:16:11;96652.19;;;11.53;100.00
11936;BME280;6027;48.576;9.180;2023-04-28T01:18:37;96659.16;;;11.60;100.00
11936;BME280;6027;48.576;9.180;2023-04-28T01:21:03;96655.06;;;11.58;100.00
11936;BME280;6027;48.576;9.180;2023-04-28T01:23:28;96655.88;;;11.58;100.00
11936;BME280;6027;48.576;9.180;2023-04-28T01:25:54;96650.44;;;11.66;100.00
11936;BME280;6027;48.576;9.180;2023-04-28T01:28:19;96645.31;;;11.65;100.00
11936;BME280;6027;48.576;9.180;2023-04-28T01:30:45;96644.94;;;11.68;100.00
11936;BME280;6027;48.576;9.180;2023-04-28T01:33:10;96632.75;;;11.73;99.19
11936;BME280;6027;48.576;9.180;2023-04-28T01:35:35;96637.38;;;11.65;100.00
11936;BME280;6027;48.576;9.180;2023-04-28T01:38:01;96598.47;;;11.44;100.00
11936;BME280;6027;48.576;9.180;2023-04-28T01:40:27;96622.41;;;11.57;100.00
11936;BME280;6027;48.576;9.180;2023-04-28T01:42:52;96629.97;;;11.60;100.00
11936;BME280;6027;48.576;9.180;2023-04-28T01:45:18;96626.31;;;11.61;100.00
11936;BME280;6027;48.576;9.180;2023-04-28T01:47:43;96618.38;;;11.61;100.00
11936;BME280;6027;48.576;9.180;2023-04-28T01:50:09;96623.09;;;11.66;100.00
11936;BME280;6027;48.576;9.180;2023-04-28T01:52:34;96630.84;;;11.67;100.00
11936;BME280;6027;48.576;9.180;2023-04-28T01:55:00;96621.06;;;11.68;100.00
11936;BME280;6027;48.576;9.180;2023-04-28T01:57:25;96619.25;;;11.68;100.00
11936;BME280;6027;48.576;9.180;2023-04-28T01:59:53;96622.13;;;11.73;100.00
11936;BME280;6027;48.576;9.180;2023-04-28T02:02:18;96620.25;;;11.67;100.00
11936;BME280;6027;48.576;9.180;2023-04-28T02:04:44;96622.31;;;11.72;100.00
11936;BME280;6027;48.576;9.180;2023-04-28T02:07:09;96625.75;;;11.66;100.00
11936;BME280;6027;48.576;9.180;2023-04-28T02:09:34;96623.44;;;11.56;100.00
11936;BME280;6027;48.576;9.180;2023-04-28T02:12:00;96616.09;;;11.58;100.00
11936;BME280;6027;48.576;9.180;2023-04-28T02:14:27;96613.25;;;11.53;100.00
11936;BME280;6027;48.576;9.180;2023-04-28T02:16:53;96613.84;;;11.55;100.00
11936;BME280;6027;48.576;9.180;2023-04-28T02:19:18;96609.13;;;11.51;100.00
11936;BME280;6027;48.576;9.180;2023-04-28T02:21:44;96607.94;;;11.53;100.00
11936;BME280;6027;48.576;9.180;2023-04-28T02:24:10;96601.81;;;11.53;100.00
11936;BME280;6027;48.576;9.180;2023-04-28T02:26:35;96601.56;;;11.48;100.00
11936;BME280;6027;48.576;9.180;2023-04-28T02:29:01;96588.25;;;11.41;100.00
11936;BME280;6027;48.576;9.180;2023-04-28T02:31:28;96591.59;;;11.50;100.00
11936;BME280;6027;48.576;9.180;2023-04-28T02:33:53;96598.09;;;11.47;100.00
11936;BME280;6027;48.576;9.180;2023-04-28T02:36:19;96595.44;;;11.47;100.00
11936;BME280;6027;48.576;9.180;2023-04-28T02:38:44;96603.00;;;11.50;100.00
11936;BME280;6027;48.576;9.180;2023-04-28T02:41:10;96606.06;;;11.47;100.00
11936;BME280;6027;48.576;9.180;2023-04-28T02:43:35;96605.03;;;11.48;100.00
11936;BME280;6027;48.576;9.180;2023-04-28T02:46:04;96604.03;;;11.49;100.00
11936;BME280;6027;48.576;9.180;2023-04-28T02:48:30;96605.03;;;11.48;100.00
11936;BME280;6027;48.576;9.180;2023-04-28T02:50:57;96593.81;;;11.46;100.00
11936;BME280;6027;48.576;9.180;2023-04-28T02:53:22;96596.25;;;11.48;100.00
11936;BME280;6027;48.576;9.180;2023-04-28T02:55:48;96597.66;;;11.43;100.00
11936;BME280;6027;48.576;9.180;2023-04-28T02:58:13;96590.34;;;11.46;100.00
11936;BME280;6027;48.576;9.180;2023-04-28T03:00:39;96593.56;;;11.41;100.00
11936;BME280;6027;48.576;9.180;2023-04-28T03:03:04;96600.88;;;11.32;100.00
11936;BME280;6027;48.576;9.180;2023-04-28T03:05:30;96602.44;;;11.27;100.00
11936;BME280;6027;48.576;9.180;2023-04-28T03:08:15;96607.16;;;10.82;100.00
11936;BME280;6027;48.576;9.180;2023-04-28T03:11:01;96600.88;;;10.83;100.00
11936;BME280;6027;48.576;9.180;2023-04-28T03:13:46;96593.63;;;10.92;100.00
11936;BME280;6027;48.576;9.180;2023-04-28T03:16:32;96603.25;;;10.78;100.00
11936;BME280;6027;48.576;9.180;2023-04-28T03:19:17;96610.81;;;10.81;100.00
11936;BME280;6027;48.576;9.180;2023-04-28T03:22:03;96606.16;;;10.83;100.00
11936;BME280;6027;48.576;9.180;2023-04-28T03:24:48;96595.56;;;10.83;100.00
11936;BME280;6027;48.576;9.180;2023-04-28T03:27:34;96591.91;;;10.84;100.00
11936;BME280;6027;48.576;9.180;2023-04-28T03:30:20;96591.72;;;10.86;100.00
11936;BME280;6027;48.576;9.180;2023-04-28T03:33:06;96585.53;;;10.79;100.00
11936;BME280;6027;48.576;9.180;2023-04-28T03:35:51;96584.34;;;10.60;100.00
11936;BME280;6027;48.576;9.180;2023-04-28T03:38:37;96587.88;;;10.46;100.00
11936;BME280;6027;48.576;9.180;2023-04-28T03:41:23;96585.75;;;10.34;100.00
11936;BME280;6027;48.576;9.180;2023-04-28T03:44:08;96587.94;;;10.31;100.00
11936;BME280;6027;48.576;9.180;2023-04-28T03:46:53;96585.84;;;10.26;100.00
11936;BME280;6027;48.576;9.180;2023-04-28T03:49:39;96581.47;;;10.33;100.00
11936;BME280;6027;48.576;9.180;2023-04-28T03:52:24;96570.31;;;10.38;100.00
11936;BME280;6027;48.576;9.180;2023-04-28T03:55:10;96572.53;;;10.56;100.00
11936;BME280;6027;48.576;9.180;2023-04-28T03:57:55;96577.94;;;10.48;100.00
11936;BME280;6027;48.576;9.180;2023-04-28T04:00:41;96572.25;;;10.51;100.00
11936;BME280;6027;48.576;9.180;2023-04-28T04:03:26;96573.63;;;10.47;100.00
11936;BME280;6027;48.576;9.180;2023-04-28T04:06:12;96574.09;;;10.50;100.00
11936;BME280;6027;48.576;9.180;2023-04-28T04:08:57;96570.06;;;10.54;100.00
11936;BME280;6027;48.576;9.180;2023-04-28T04:11:43;96571.28;;;10.58;100.00
11936;BME280;6027;48.576;9.180;2023-04-28T04:14:28;96565.81;;;10.60;100.00
11936;BME280;6027;48.576;9.180;2023-04-28T04:17:14;96570.09;;;10.82;100.00
11936;BME280;6027;48.576;9.180;2023-04-28T04:20:00;96563.16;;;10.81;100.00
11936;BME280;6027;48.576;9.180;2023-04-28T04:22:45;96568.91;;;10.63;100.00
11936;BME280;6027;48.576;9.180;2023-04-28T04:25:31;96572.13;;;10.59;100.00
11936;BME280;6027;48.576;9.180;2023-04-28T04:28:16;96564.44;;;10.64;100.00
11936;BME280;6027;48.576;9.180;2023-04-28T04:31:02;96564.59;;;10.56;100.00
11936;BME280;6027;48.576;9.180;2023-04-28T04:33:48;96574.66;;;10.67;100.00
11936;BME280;6027;48.576;9.180;2023-04-28T04:36:33;96569.16;;;10.68;100.00
11936;BME280;6027;48.576;9.180;2023-04-28T04:39:19;96570.69;;;10.56;100.00
11936;BME280;6027;48.576;9.180;2023-04-28T04:42:04;96564.88;;;10.67;100.00
11936;BME280;6027;48.576;9.180;2023-04-28T04:44:49;96566.34;;;10.70;100.00
11936;BME280;6027;48.576;9.180;2023-04-28T04:47:35;96556.38;;;10.72;100.00
11936;BME280;6027;48.576;9.180;2023-04-28T04:50:20;96558.66;;;10.75;100.00
11936;BME280;6027;48.576;9.180;2023-04-28T04:53:06;96559.13;;;10.64;100.00
11936;BME280;6027;48.576;9.180;2023-04-28T04:55:51;96561.78;;;10.64;100.00
11936;BME280;6027;48.576;9.180;2023-04-28T04:58:17;96558.88;;;10.59;100.00
11936;BME280;6027;48.576;9.180;2023-04-28T05:00:42;96561.59;;;10.65;100.00
11936;BME280;6027;48.576;9.180;2023-04-28T05:03:07;96534.69;;;10.62;100.00
11936;BME280;6027;48.576;9.180;2023-04-28T05:05:33;96552.09;;;10.71;100.00
11936;BME280;6027;48.576;9.180;2023-04-28T05:07:59;96559.06;;;10.79;100.00
11936;BME280;6027;48.576;9.180;2023-04-28T05:10:25;96547.25;;;10.81;100.00
11936;BME280;6027;48.576;9.180;2023-04-28T05:12:51;96542.03;;;10.88;100.00
11936;BME280;6027;48.576;9.180;2023-04-28T05:15:17;96549.03;;;10.95;100.00
11936;BME280;6027;48.576;9.180;2023-04-28T05:17:42;96552.28;;;10.97;100.00
11936;BME280;6027;48.576;9.180;2023-04-28T05:20:08;96547.28;;;11.09;100.00
11936;BME280;6027;48.576;9.180;2023-04-28T05:22:33;96546.47;;;11.08;100.00
11936;BME280;6027;48.576;9.180;2023-04-28T05:24:58;96547.47;;;11.07;100.00
11936;BME280;6027;48.576;9.180;2023-04-28T05:27:24;96554.47;;;11.15;100.00
11936;BME280;6027;48.576;9.180;2023-04-28T05:29:49;96546.94;;;11.19;100.00
11936;BME280;6027;48.576;9.180;2023-04-28T05:32:15;96541.63;;;11.19;100.00
11936;BME280;6027;48.576;9.180;2023-04-28T05:34:40;96557.34;;;11.20;100.00
11936;BME280;6027;48.576;9.180;2023-04-28T05:37:06;96555.13;;;11.24;100.00
11936;BME280;6027;48.576;9.180;2023-04-28T05:39:31;96558.97;;;11.21;100.00
11936;BME280;6027;48.576;9.180;2023-04-28T05:41:56;96554.50;;;11.22;100.00
11936;BME280;6027;48.576;9.180;2023-04-28T05:44:23;96555.50;;;11.21;100.00
11936;BME280;6027;48.576;9.180;2023-04-28T05:46:48;96545.53;;;11.23;100.00
11936;BME280;6027;48.576;9.180;2023-04-28T05:49:14;96552.53;;;11.30;100.00
11936;BME280;6027;48.576;9.180;2023-04-28T05:51:39;96563.13;;;11.30;100.00
11936;BME280;6027;48.576;9.180;2023-04-28T05:54:05;96550.41;;;11.19;100.00
11936;BME280;6027;48.576;9.180;2023-04-28T05:56:30;96542.13;;;11.29;100.00
11936;BME280;6027;48.576;9.180;2023-04-28T05:58:56;96545.41;;;11.31;100.00
11936;BME280;6027;48.576;9.180;2023-04-28T06:01:23;96548.44;;;11.28;100.00
11936;BME280;6027;48.576;9.180;2023-04-28T06:03:48;96552.34;;;11.32;100.00
11936;BME280;6027;48.576;9.180;2023-04-28T06:06:14;96536.97;;;11.21;100.00
11936;BME280;6027;48.576;9.180;2023-04-28T06:08:39;96542.56;;;11.32;100.00
11936;BME280;6027;48.576;9.180;2023-04-28T06:11:05;96549.50;;;11.40;100.00
11936;BME280;6027;48.576;9.180;2023-04-28T06:13:31;96540.13;;;11.37;100.00
11936;BME280;6027;48.576;9.180;2023-04-28T06:15:56;96542.38;;;11.34;100.00
11936;BME280;6027;48.576;9.180;2023-04-28T06:18:22;96544.13;;;11.27;100.00
11936;BME280;6027;48.576;9.180;2023-04-28T06:20:48;96547.84;;;11.32;100.00
11936;BME280;6027;48.576;9.180;2023-04-28T06:23:14;96544.13;;;11.27;100.00
11936;BME280;6027;48.576;9.180;2023-04-28T06:25:39;96548.69;;;11.33;100.00
11936;BME280;6027;48.576;9.180;2023-04-28T06:28:05;96547.50;;;11.42;100.00
11936;BME280;6027;48.576;9.180;2023-04-28T06:30:33;96545.00;;;11.34;100.00
11936;BME280;6027;48.576;9.180;2023-04-28T06:32:59;96553.91;;;11.26;100.00
11936;BME280;6027;48.576;9.180;2023-04-28T06:35:24;96542.50;;;11.26;100.00
11936;BME280;6027;48.576;9.180;2023-04-28T06:37:50;96548.19;;;11.23;100.00
11936;BME280;6027;48.576;9.180;2023-04-28T06:40:15;96532.53;;;11.28;100.00
11936;BME280;6027;48.576;9.180;2023-04-28T06:42:41;96540.91;;;11.31;100.00
11936;BME280;6027;48.576;9.180;2023-04-28T06:45:07;96530.50;;;11.30;100.00
11936;BME280;6027;48.576;9.180;2023-04-28T06:47:32;96530.06;;;11.26;100.00
11936;BME280;6027;48.576;9.180;2023-04-28T06:49:58;96531.53;;;11.29;100.00
11936;BME280;6027;48.576;9.180;2023-04-28T06:52:26;96530.31;;;11.31;100.00
11936;BME280;6027;48.576;9.180;2023-04-28T06:54:53;96526.47;;;11.34;100.00
11936;BME280;6027;48.576;9.180;2023-04-28T06:57:18;96530.75;;;11.35;100.00
11936;BME280;6027;48.576;9.180;2023-04-28T06:59:45;96521.56;;;11.37;100.00
11936;BME280;6027;48.576;9.180;2023-04-28T07:02:10;96525.84;;;11.38;100.00
11936;BME280;6027;48.576;9.180;2023-04-28T07:04:36;96518.34;;;11.42;100.00
11936;BME280;6027;48.576;9.180;2023-04-28T07:07:02;96531.44;;;11.50;100.00
11936;BME280;6027;48.576;9.180;2023-04-28T07:09:31;96515.72;;;11.55;100.00
11936;BME280;6027;48.576;9.180;2023-04-28T07:11:56;96523.91;;;11.54;100.00
11936;BME280;6027;48.576;9.180;2023-04-28T07:14:22;96522.91;;;11.61;100.00
11936;BME280;6027;48.576;9.180;2023-04-28T07:16:47;96513.72;;;11.57;100.00
11936;BME280;6027;48.576;9.180;2023-04-28T07:19:13;96514.81;;;11.69;100.00
11936;BME280;6027;48.576;9.180;2023-04-28T07:21:38;96507.03;;;11.68;100.00
11936;BME280;6027;48.576;9.180;2023-04-28T07:24:04;96518.22;;;11.63;100.00
11936;BME280;6027;48.576;9.180;2023-04-28T07:26:29;96514.81;;;11.69;100.00
11936;BME280;6027;48.576;9.180;2023-04-28T07:28:54;96509.50;;;11.69;100.00
11936;BME280;6027;48.576;9.180;2023-04-28T07:31:20;96509.09;;;11.72;100.00
11936;BME280;6027;48.576;9.180;2023-04-28T07:33:46;96508.31;;;11.79;100.00
11936;BME280;6027;48.576;9.180;2023-04-28T07:36:12;96509.94;;;11.73;100.00
11936;BME280;6027;48.576;9.180;2023-04-28T07:38:37;96510.59;;;11.82;100.00
11936;BME280;6027;48.576;9.180;2023-04-28T07:41:03;96506.91;;;11.83;100.00
11936;BME280;6027;48.576;9.180;2023-04-28T07:43:29;96517.44;;;11.69;100.00
11936;BME280;6027;48.576;9.180;2023-04-28T07:45:55;96516.97;;;11.59;100.00
11936;BME280;6027;48.576;9.180;2023-04-28T07:48:20;96517.22;;;11.64;100.00
11936;BME280;6027;48.576;9.180;2023-04-28T07:50:46;96519.00;;;11.51;100.00
11936;BME280;6027;48.576;9.180;2023-04-28T07:53:12;96509.22;;;11.51;100.00
11936;BME280;6027;48.576;9.180;2023-04-28T07:55:37;96507.19;;;11.53;100.00
11936;BME280;6027;48.576;9.180;2023-04-28T07:58:06;96516.22;;;11.65;100.00
11936;BME280;6027;48.576;9.180;2023-04-28T08:00:32;96499.28;;;11.66;100.00
11936;BME280;6027;48.576;9.180;2023-04-28T08:02:57;96491.31;;;11.66;100.00
11936;BME280;6027;48.576;9.180;2023-04-28T08:05:22;96506.88;;;11.76;100.00
11936;BME280;6027;48.576;9.180;2023-04-28T08:07:48;96497.25;;;11.75;100.00
11936;BME280;6027;48.576;9.180;2023-04-28T08:10:13;96505.88;;;11.77;100.00
11936;BME280;6027;48.576;9.180;2023-04-28T08:12:39;96516.63;;;11.69;100.00
11936;BME280;6027;48.576;9.180;2023-04-28T08:15:05;96520.69;;;11.65;100.00
11936;BME280;6027;48.576;9.180;2023-04-28T08:17:32;96519.06;;;11.64;100.00
11936;BME280;6027;48.576;9.180;2023-04-28T08:19:57;96522.38;;;11.72;100.00
11936;BME280;6027;48.576;9.180;2023-04-28T08:22:23;96529.75;;;11.77;100.00
11936;BME280;6027;48.576;9.180;2023-04-28T08:24:48;96532.16;;;11.72;100.00
11936;BME280;6027;48.576;9.180;2023-04-28T08:27:14;96536.88;;;11.76;100.00
11936;BME280;6027;48.576;9.180;2023-04-28T08:29:40;96531.19;;;11.80;100.00
11936;BME280;6027;48.576;9.180;2023-04-28T08:32:05;96538.34;;;11.86;100.00
11936;BME280;6027;48.576;9.180;2023-04-28T08:34:32;96536.13;;;11.96;100.00
11936;BME280;6027;48.576;9.180;2023-04-28T08:36:57;96533.47;;;11.96;100.00
11936;BME280;6027;48.576;9.180;2023-04-28T08:39:24;96535.75;;;11.99;100.00
11936;BME280;6027;48.576;9.180;2023-04-28T08:41:51;96539.25;;;12.06;100.00
11936;BME280;6027;48.576;9.180;2023-04-28T08:44:17;96540.06;;;12.13;100.00
11936;BME280;6027;48.576;9.180;2023-04-28T08:46:44;96547.44;;;12.11;100.00
11936;BME280;6027;48.576;9.180;2023-04-28T08:49:17;96540.28;;;12.18;100.00
11936;BME280;6027;48.576;9.180;2023-04-28T08:51:51;96549.09;;;12.25;100.00
11936;BME280;6027;48.576;9.180;2023-04-28T08:54:19;96545.84;;;12.30;100.00
11936;BME280;6027;48.576;9.180;2023-04-28T08:56:46;96550.94;;;12.38;100.00
11936;BME280;6027;48.576;9.180;2023-04-28T08:59:12;96558.13;;;12.44;100.00
11936;BME280;6027;48.576;9.180;2023-04-28T09:01:39;96555.28;;;12.45;100.00
11936;BME280;6027;48.576;9.180;2023-04-28T09:04:05;96556.50;;;12.56;100.00
11936;BME280;6027;48.576;9.180;2023-04-28T09:06:35;96560.59;;;12.59;100.00
11936;BME280;6027;48.576;9.180;2023-04-28T09:09:26;96559.19;;;12.63;100.00
11936;BME280;6027;48.576;9.180;2023-04-28T09:14:22;96568.97;;;12.75;100.00
11936;BME280;6027;48.576;9.180;2023-04-28T09:16:48;96564.69;;;12.74;100.00
11936;BME280;6027;48.576;9.180;2023-04-28T09:19:14;96573.69;;;12.80;100.00
11936;BME280;6027;48.576;9.180;2023-04-28T09:21:53;96569.19;;;12.80;100.00
11936;BME280;6027;48.576;9.180;2023-04-28T09:27:02;96563.88;;;12.74;100.00
11936;BME280;6027;48.576;9.180;2023-04-28T09:29:29;96576.13;;;12.75;100.00
11936;BME280;6027;48.576;9.180;2023-04-28T09:32:17;96563.28;;;12.78;100.00
11936;BME280;6027;48.576;9.180;2023-04-28T09:34:44;96574.72;;;12.79;100.00
11936;BME280;6027;48.576;9.180;2023-04-28T09:37:17;96575.75;;;12.85;100.00
11936;BME280;6027;48.576;9.180;2023-04-28T09:39:48;96565.09;;;12.91;100.00
11936;BME280;6027;48.576;9.180;2023-04-28T09:42:34;96590.66;;;12.92;100.00
11936;BME280;6027;48.576;9.180;2023-04-28T09:45:11;96587.19;;;12.92;100.00
11936;BME280;6027;48.576;9.180;2023-04-28T09:47:44;96589.66;;;13.06;100.00
11936;BME280;6027;48.576;9.180;2023-04-28T09:50:13;96581.03;;;13.11;100.00
11936;BME280;6027;48.576;9.180;2023-04-28T09:52:41;96584.38;;;13.26;100.00
11936;BME280;6027;48.576;9.180;2023-04-28T09:55:09;96580.69;;;13.27;100.00
11936;BME280;6027;48.576;9.180;2023-04-28T09:57:36;96582.91;;;13.30;100.00
11936;BME280;6027;48.576;9.180;2023-04-28T10:00:03;96587.63;;;13.35;100.00
11936;BME280;6027;48.576;9.180;2023-04-28T10:02:32;96580.25;;;13.43;100.00
11936;BME280;6027;48.576;9.180;2023-04-28T10:04:58;96585.56;;;13.43;100.00
11936;BME280;6027;48.576;9.180;2023-04-28T10:07:25;96587.81;;;13.46;100.00
11936;BME280;6027;48.576;9.180;2023-04-28T10:09:51;96585.53;;;13.63;100.00
11936;BME280;6027;48.576;9.180;2023-04-28T10:12:21;96589.16;;;13.82;100.00
11936;BME280;6027;48.576;9.180;2023-04-28T10:14:48;96587.69;;;13.93;100.00
11936;BME280;6027;48.576;9.180;2023-04-28T10:17:16;96583.31;;;14.11;100.00
11936;BME280;6027;48.576;9.180;2023-04-28T10:19:43;96586.72;;;14.25;100.00
11936;BME280;6027;48.576;9.180;2023-04-28T10:27:46;96583.53;;;14.55;100.00
11936;BME280;6027;48.576;9.180;2023-04-28T10:30:17;96586.75;;;14.63;100.00
11936;BME280;6027;48.576;9.180;2023-04-28T10:32:43;96582.41;;;14.69;100.00
11936;BME280;6027;48.576;9.180;2023-04-28T10:38:14;96582.72;;;14.85;100.00
11936;BME280;6027;48.576;9.180;2023-04-28T10:40:41;96583.28;;;14.94;100.00
11936;BME280;6027;48.576;9.180;2023-04-28T10:43:11;96583.72;;;14.91;100.00
11936;BME280;6027;48.576;9.180;2023-04-28T10:48:22;96591.81;;;15.03;100.00
11936;BME280;6027;48.576;9.180;2023-04-28T10:58:48;96583.34;;;15.12;100.00
11936;BME280;6027;48.576;9.180;2023-04-28T11:11:37;96572.88;;;15.36;100.00
11936;BME280;6027;48.576;9.180;2023-04-28T11:16:52;96559.56;;;15.54;100.00
11936;BME280;6027;48.576;9.180;2023-04-28T11:19:22;96572.41;;;15.64;100.00
11936;BME280;6027;48.576;9.180;2023-04-28T11:21:52;96574.28;;;15.63;100.00
11936;BME280;6027;48.576;9.180;2023-04-28T11:24:18;96566.66;;;15.67;100.00
11936;BME280;6027;48.576;9.180;2023-04-28T11:26:44;96570.72;;;15.69;100.00
11936;BME280;6027;48.576;9.180;2023-04-28T11:29:10;96568.44;;;15.73;100.00
11936;BME280;6027;48.576;9.180;2023-04-28T11:31:36;96571.16;;;15.66;100.00
11936;BME280;6027;48.576;9.180;2023-04-28T11:34:04;96572.38;;;15.70;100.00
11936;BME280;6027;48.576;9.180;2023-04-28T11:36:35;96577.84;;;15.75;100.00
11936;BME280;6027;48.576;9.180;2023-04-28T11:39:05;96571.16;;;15.84;100.00
11936;BME280;6027;48.576;9.180;2023-04-28T11:41:35;96570.50;;;15.89;100.00
11936;BME280;6027;48.576;9.180;2023-04-28T11:44:18;96576.94;;;16.00;100.00
11936;BME280;6027;48.576;9.180;2023-04-28T11:46:48;96569.53;;;16.02;100.00
11936;BME280;6027;48.576;9.180;2023-04-28T11:49:17;96573.31;;;16.12;100.00
11936;BME280;6027;48.576;9.180;2023-04-28T11:51:43;96570.84;;;16.29;100.00
11936;BME280;6027;48.576;9.180;2023-04-28T11:54:11;96571.66;;;16.30;100.00
11936;BME280;6027;48.576;9.180;2023-04-28T11:56:40;96555.22;;;16.44;100.00
11936;BME280;6027;48.576;9.180;2023-04-28T11:59:07;96556.25;;;16.43;100.00
11936;BME280;6027;48.576;9.180;2023-04-28T12:01:44;96555.00;;;16.46;100.00
11936;BME280;6027;48.576;9.180;2023-04-28T12:04:09;96562.56;;;16.49;100.00
11936;BME280;6027;48.576;9.180;2023-04-28T12:06:37;96561.81;;;16.42;100.00
11936;BME280;6027;48.576;9.180;2023-04-28T12:09:14;96564.94;;;16.39;100.00
11936;BME280;6027;48.576;9.180;2023-04-28T12:11:51;96560.66;;;16.38;100.00
11936;BME280;6027;48.576;9.180;2023-04-28T12:14:17;96559.97;;;16.42;100.00
11936;BME280;6027;48.576;9.180;2023-04-28T12:16:43;96556.25;;;16.43;100.00
11936;BME280;6027;48.576;9.180;2023-04-28T12:19:10;96555.53;;;16.36;100.00
11936;BME280;6027;48.576;9.180;2023-04-28T12:21:37;96567.59;;;16.27;100.00
11936;BME280;6027;48.576;9.180;2023-04-28T12:24:19;96557.19;;;16.19;100.00
11936;BME280;6027;48.576;9.180;2023-04-28T12:26:46;96570.47;;;16.26;100.00
11936;BME280;6027;48.576;9.180;2023-04-28T12:29:40;96567.09;;;16.48;100.00
11936;BME280;6027;48.576;9.180;2023-04-28T12:32:07;96576.34;;;16.64;100.00
11936;BME280;6027;48.576;9.180;2023-04-28T12:34:34;96575.69;;;16.69;100.00
11936;BME280;6027;48.576;9.180;2023-04-28T12:37:01;96576.88;;;16.73;100.00
11936;BME280;6027;48.576;9.180;2023-04-28T12:39:26;96573.16;;;16.74;100.00
11936;BME280;6027;48.576;9.180;2023-04-28T12:41:52;96570.59;;;16.79;100.00
11936;BME280;6027;48.576;9.180;2023-04-28T12:44:20;96565.34;;;16.72;100.00
11936;BME280;6027;48.576;9.180;2023-04-28T12:46:46;96567.28;;;16.65;100.00
11936;BME280;6027;48.576;9.180;2023-04-28T12:49:12;96568.72;;;16.49;100.00
11936;BME280;6027;48.576;9.180;2023-04-28T12:51:38;96565.31;;;16.42;100.00
11936;BME280;6027;48.576;9.180;2023-04-28T12:54:04;96566.94;;;16.43;100.00
11936;BME280;6027;48.576;9.180;2023-04-28T12:56:29;96564.19;;;16.50;100.00
11936;BME280;6027;48.576;9.180;2023-04-28T12:58:54;96557.22;;;16.49;100.00
11936;BME280;6027;48.576;9.180;2023-04-28T13:01:20;96552.66;;;16.68;100.00
11936;BME280;6027;48.576;9.180;2023-04-28T13:03:45;96540.47;;;16.72;100.00
11936;BME280;6027;48.576;9.180;2023-04-28T13:06:12;96546.88;;;16.94;100.00
11936;BME280;6027;48.576;9.180;2023-04-28T13:08:39;96548.53;;;16.95;100.00
11936;BME280;6027;48.576;9.180;2023-04-28T13:11:04;96536.00;;;17.07;100.00
11936;BME280;6027;48.576;9.180;2023-04-28T13:13:30;96546.09;;;17.17;100.00
11936;BME280;6027;48.576;9.180;2023-04-28T13:15:56;96537.84;;;17.18;100.00
11936;BME280;6027;48.576;9.180;2023-04-28T13:18:22;96534.13;;;17.19;100.00
11936;BME280;6027;48.576;9.180;2023-04-28T13:20:48;96540.53;;;17.07;100.00
11936;BME280;6027;48.576;9.180;2023-04-28T13:23:13;96535.75;;;16.97;100.00
11936;BME280;6027;48.576;9.180;2023-04-28T13:25:38;96530.38;;;16.97;100.00
11936;BME280;6027;48.576;9.180;2023-04-28T13:28:04;96528.75;;;16.96;100.00
11936;BME280;6027;48.576;9.180;2023-04-28T13:30:30;96535.50;;;16.87;100.00
11936;BME280;6027;48.576;9.180;2023-04-28T13:32:55;96529.78;;;16.83;100.00
11936;BME280;6027;48.576;9.180;2023-04-28T13:35:21;96527.81;;;16.79;100.00
11936;BME280;6027;48.576;9.180;2023-04-28T13:37:48;96525.81;;;16.74;100.00
11936;BME280;6027;48.576;9.180;2023-04-28T13:40:13;96530.53;;;16.61;100.00
11936;BME280;6027;48.576;9.180;2023-04-28T13:42:39;96517.00;;;16.55;100.00
11936;BME280;6027;48.576;9.180;2023-04-28T13:45:04;96510.38;;;16.46;100.00
11936;BME280;6027;48.576;9.180;2023-04-28T13:47:30;96522.56;;;16.42;100.00